Time;durP1;ratioP1;P1;durP2;ratioP2;P2;SDS_P1;SDS_P2;PMS_P1;PMS_P2;Temp;Humidity;BMP_temperature;BMP_pressure;BME280_temperature;BME280_humidity;BME280_pressure;Samples;Min_cycle;Max_cycle;Signal;HPM_P1;HPM_P2
2024/01/14 00:00:37;;;;;;;0.68;0.68;;;1.40;99.90;;;;;;5014414;28;20192;-81
2024/01/14 00:03:04;;;;;;;1.42;1.25;;;1.40;99.90;;;;;;5014636;28;20729;-82
2024/01/14 00:05:31;;;;;;;12.02;8.15;;;1.40;99.90;;;;;;5014025;28;20647;-82
2024/01/14 00:07:57;;;;;;;12.45;4.10;;;1.50;99.90;;;;;;5014373;28;20207;-82
2024/01/14 00:10:24;;;;;;;4.60;4.25;;;1.50;99.90;;;;;;5013303;28;20193;-82
2024/01/14 00:12:51;;;;;;;6.68;3.63;;;1.50;99.90;;;;;;5013999;28;20188;-82
2024/01/14 00:15:19;;;;;;;17.77;8.80;;;1.50;99.90;;;;;;5014273;28;20227;-82
2024/01/14 00:17:47;;;;;;;9.45;5.30;;;1.50;99.90;;;;;;5013293;28;20216;-82
2024/01/14 00:20:14;;;;;;;24.88;9.27;;;1.50;99.90;;;;;;5014001;28;20645;-81
2024/01/14 00:22:40;;;;;;;34.58;17.73;;;1.50;99.90;;;;;;5013539;28;20200;-82
2024/01/14 00:25:08;;;;;;;13.50;7.35;;;1.50;99.90;;;;;;5013607;28;20209;-81
2024/01/14 00:27:34;;;;;;;3.80;2.13;;;1.50;99.90;;;;;;5013380;28;20609;-81
2024/01/14 00:30:01;;;;;;;13.82;6.90;;;1.50;99.90;;;;;;5013056;28;20192;-82
2024/01/14 00:32:28;;;;;;;9.05;3.38;;;1.50;99.90;;;;;;5013477;28;20212;-83
2024/01/14 00:34:56;;;;;;;4.65;3.88;;;1.50;99.90;;;;;;5012759;28;20196;-81
2024/01/14 00:37:24;;;;;;;2.83;2.63;;;1.50;99.90;;;;;;5011724;28;20197;-82
2024/01/14 00:39:51;;;;;;;14.68;9.15;;;1.50;99.90;;;;;;5012617;28;20677;-81
2024/01/14 00:42:18;;;;;;;13.50;6.38;;;1.50;99.90;;;;;;5012553;28;20200;-81
2024/01/14 00:44:44;;;;;;;4.22;3.25;;;1.40;99.90;;;;;;5012846;28;20202;-81
2024/01/14 00:47:11;;;;;;;39.05;10.75;;;1.40;99.90;;;;;;5012690;28;20246;-82
2024/01/14 00:49:38;;;;;;;9.98;6.95;;;1.40;99.90;;;;;;5012209;28;20203;-82
2024/01/14 00:52:06;;;;;;;5.45;4.93;;;1.40;99.90;;;;;;5012531;28;20204;-81
2024/01/14 00:54:33;;;;;;;21.55;7.00;;;1.40;99.90;;;;;;5012496;28;20197;-82
2024/01/14 00:57:00;;;;;;;17.90;9.02;;;1.40;99.90;;;;;;5021572;28;20220;-82
2024/01/14 00:59:26;;;;;;;19.73;12.07;;;1.40;99.90;;;;;;5032186;28;20211;-83
2024/01/14 01:01:53;;;;;;;7.03;5.45;;;1.40;99.90;;;;;;5031613;28;20579;-81
2024/01/14 01:04:20;;;;;;;10.65;6.25;;;1.40;99.90;;;;;;5031273;28;20192;-83
2024/01/14 01:06:46;;;;;;;1.02;0.70;;;1.40;99.90;;;;;;5031322;28;20231;-82
2024/01/14 01:09:15;;;;;;;6.43;4.88;;;1.40;99.90;;;;;;5031243;28;20184;-83
2024/01/14 01:11:41;;;;;;;1.88;1.60;;;1.30;99.90;;;;;;5031286;28;20202;-82
2024/01/14 01:14:08;;;;;;;3.22;1.40;;;1.40;99.90;;;;;;5003656;28;20576;-84
2024/01/14 01:16:35;;;;;;;14.80;5.57;;;1.40;99.90;;;;;;5011447;28;20223;-83
2024/01/14 01:19:02;;;;;;;2.38;2.17;;;1.40;99.90;;;;;;5011764;28;20221;-83
2024/01/14 01:21:28;;;;;;;7.22;6.47;;;1.30;99.90;;;;;;5011641;28;20255;-83
2024/01/14 01:23:55;;;;;;;7.82;3.70;;;1.30;99.90;;;;;;5011667;28;20203;-79
2024/01/14 01:26:24;;;;;;;13.75;9.20;;;1.30;99.90;;;;;;5011665;28;20212;-83
2024/01/14 01:28:51;;;;;;;17.52;8.40;;;1.30;99.90;;;;;;5028805;28;20346;-82
2024/01/14 01:31:18;;;;;;;11.55;7.68;;;1.30;99.90;;;;;;5038937;28;20196;-82
2024/01/14 01:33:45;;;;;;;18.15;4.90;;;1.30;99.90;;;;;;5039649;28;20200;-83
2024/01/14 01:36:12;;;;;;;29.77;7.82;;;1.20;99.90;;;;;;5013666;28;20227;-84
2024/01/14 01:38:38;;;;;;;3.75;3.40;;;1.20;99.90;;;;;;5022443;28;20247;-82
2024/01/14 01:41:05;;;;;;;5.55;2.88;;;1.10;99.90;;;;;;5022541;28;20196;-83
2024/01/14 01:43:33;;;;;;;2.75;1.83;;;1.10;99.90;;;;;;5022151;28;20203;-84
2024/01/14 01:46:00;;;;;;;1.88;1.77;;;1.10;99.90;;;;;;5040392;28;20220;-82
2024/01/14 01:48:27;;;;;;;0.43;0.43;;;1.10;99.90;;;;;;5042036;28;20188;-84
2024/01/14 01:50:56;;;;;;;1.88;1.77;;;1.10;99.90;;;;;;5044212;28;20654;-82
2024/01/14 01:53:24;;;;;;;10.68;2.35;;;1.20;99.90;;;;;;5044641;28;20196;-82
2024/01/14 01:55:52;;;;;;;2.50;1.95;;;1.20;99.90;;;;;;5043579;28;20219;-84
2024/01/14 01:58:19;;;;;;;15.73;8.18;;;1.20;99.90;;;;;;5043676;28;20214;-82
2024/01/14 02:00:49;;;;;;;10.90;5.32;;;1.20;99.90;;;;;;5026764;28;20204;-83
2024/01/14 02:03:16;;;;;;;2.30;2.17;;;1.20;99.90;;;;;;5023591;28;20189;-83
2024/01/14 02:05:44;;;;;;;4.32;4.00;;;1.20;99.90;;;;;;5023079;28;20224;-81
2024/01/14 02:08:12;;;;;;;2.35;2.15;;;1.20;99.90;;;;;;5035010;28;20188;-83
2024/01/14 02:10:38;;;;;;;1.35;1.25;;;1.20;99.90;;;;;;5044028;28;20204;-82
2024/01/14 02:13:05;;;;;;;5.72;3.33;;;1.20;99.90;;;;;;5044241;28;20200;-82
2024/01/14 02:15:32;;;;;;;2.90;2.42;;;1.20;99.90;;;;;;5043398;28;20778;-82
2024/01/14 02:18:00;;;;;;;3.65;3.53;;;1.10;99.90;;;;;;5043736;28;20198;-82
2024/01/14 02:20:27;;;;;;;1.75;1.23;;;1.10;99.90;;;;;;5043214;28;20563;-84
2024/01/14 02:22:56;;;;;;;6.50;6.07;;;1.10;99.90;;;;;;5043610;28;20192;-81
2024/01/14 02:25:24;;;;;;;1.48;0.93;;;1.00;99.90;;;;;;5043541;28;20214;-83
2024/01/14 02:27:51;;;;;;;4.95;2.67;;;1.00;99.90;;;;;;5044066;28;20200;-83
2024/01/14 02:30:19;;;;;;;7.03;4.55;;;1.00;99.90;;;;;;5023828;28;20687;-84
2024/01/14 02:32:48;;;;;;;1.85;1.75;;;1.00;99.90;;;;;;5022882;28;20196;-84
2024/01/14 02:35:15;;;;;;;5.30;4.90;;;1.00;99.90;;;;;;5022193;28;20218;-83
2024/01/14 02:37:43;;;;;;;7.65;4.65;;;1.00;99.90;;;;;;5023202;28;20201;-82
2024/01/14 02:40:11;;;;;;;18.25;5.85;;;1.10;99.90;;;;;;5022708;28;20220;-82
2024/01/14 02:42:40;;;;;;;15.20;9.38;;;1.10;99.90;;;;;;5021857;28;20250;-82
2024/01/14 02:45:08;;;;;;;11.73;5.18;;;1.10;99.90;;;;;;5022147;28;20221;-82
2024/01/14 02:47:34;;;;;;;13.30;7.63;;;1.10;99.90;;;;;;5022647;28;20200;-83
2024/01/14 02:50:01;;;;;;;12.50;5.57;;;1.20;99.90;;;;;;5022062;28;20200;-82
2024/01/14 02:52:28;;;;;;;0.80;0.77;;;1.20;99.90;;;;;;5022678;28;20212;-83
2024/01/14 02:54:55;;;;;;;1.48;1.38;;;1.20;99.90;;;;;;5021637;28;20200;-84
2024/01/14 02:57:22;;;;;;;0.80;0.80;;;1.20;99.90;;;;;;5022416;28;20193;-83
2024/01/14 02:59:50;;;;;;;2.08;1.67;;;1.20;99.90;;;;;;5021516;28;20224;-83
2024/01/14 03:02:17;;;;;;;18.10;8.02;;;1.20;99.90;;;;;;5022009;28;20199;-82
2024/01/14 03:04:44;;;;;;;6.07;2.50;;;1.20;99.90;;;;;;5021742;28;20193;-80
2024/01/14 03:07:10;;;;;;;6.47;4.80;;;1.20;99.90;;;;;;5021456;28;20208;-83
2024/01/14 03:09:37;;;;;;;0.90;0.90;;;1.20;99.90;;;;;;5022610;28;20193;-83
2024/01/14 03:12:04;;;;;;;12.35;6.75;;;1.20;99.90;;;;;;5030409;28;20579;-83
2024/01/14 03:14:31;;;;;;;3.33;2.95;;;1.20;99.90;;;;;;5043156;28;20264;-83
2024/01/14 03:17:00;;;;;;;0.50;0.50;;;1.10;99.90;;;;;;5049079;28;20288;-81
2024/01/14 03:19:27;;;;;;;5.93;4.97;;;1.10;99.90;;;;;;5042191;28;20218;-83
2024/01/14 03:21:54;;;;;;;2.15;2.05;;;1.10;99.90;;;;;;5023525;28;20227;-82
2024/01/14 03:24:21;;;;;;;20.15;6.97;;;1.10;99.90;;;;;;5020444;28;20199;-81
2024/01/14 03:26:48;;;;;;;1.05;1.05;;;1.20;99.90;;;;;;5020481;28;20700;-80
2024/01/14 03:29:15;;;;;;;2.95;2.65;;;1.20;99.90;;;;;;5019925;28;20196;-84
2024/01/14 03:31:41;;;;;;;6.82;6.28;;;1.20;99.90;;;;;;5018824;28;20196;-83
2024/01/14 03:34:09;;;;;;;2.67;2.40;;;1.20;99.90;;;;;;5019013;28;20204;-83
2024/01/14 03:36:36;;;;;;;14.35;7.13;;;1.10;99.90;;;;;;5018196;28;20217;-82
2024/01/14 03:39:05;;;;;;;2.95;2.75;;;1.10;99.90;;;;;;5018432;28;20212;-82
2024/01/14 03:41:31;;;;;;;5.53;4.00;;;1.10;99.90;;;;;;5018430;28;20197;-82
2024/01/14 03:43:58;;;;;;;16.50;7.10;;;1.10;99.90;;;;;;5020007;28;20196;-80
2024/01/14 03:46:25;;;;;;;2.67;2.47;;;1.10;99.90;;;;;;5019381;28;20692;-80
2024/01/14 03:48:52;;;;;;;1.02;1.02;;;1.00;99.90;;;;;;5019245;28;20279;-82
2024/01/14 03:51:20;;;;;;;1.35;1.25;;;1.00;99.90;;;;;;5019326;28;20196;-83
2024/01/14 03:53:46;;;;;;;0.50;0.50;;;0.90;99.90;;;;;;5025573;28;20199;-83
2024/01/14 03:56:13;;;;;;;6.68;3.03;;;1.00;99.90;;;;;;5038311;28;20693;-83
2024/01/14 03:58:40;;;;;;;0.40;0.40;;;0.90;99.90;;;;;;5038495;28;20196;-82
2024/01/14 04:01:11;;;;;;;0.90;0.90;;;1.00;99.90;;;;;;5037174;28;20282;-83
2024/01/14 04:03:38;;;;;;;8.30;5.30;;;1.00;99.90;;;;;;5023653;28;20202;-83
2024/01/14 04:06:05;;;;;;;6.90;5.13;;;0.90;99.90;;;;;;5037319;28;20226;-82
2024/01/14 04:08:33;;;;;;;4.10;2.05;;;1.00;99.90;;;;;;5031786;28;20196;-84
2024/01/14 04:11:00;;;;;;;13.70;9.23;;;1.00;99.90;;;;;;5021099;28;20213;-82
2024/01/14 04:13:27;;;;;;;1.67;1.48;;;1.10;99.90;;;;;;5031299;28;20226;-85
2024/01/14 04:15:56;;;;;;;0.90;0.90;;;1.10;99.90;;;;;;5056912;28;20248;-84
2024/01/14 04:18:23;;;;;;;2.30;2.20;;;1.10;99.90;;;;;;5056582;28;20210;-86
2024/01/14 04:20:50;;;;;;;8.57;6.20;;;1.10;99.90;;;;;;5056476;28;20222;-84
2024/01/14 04:23:16;;;;;;;1.92;1.83;;;1.10;99.90;;;;;;5056621;28;20186;-84
2024/01/14 04:25:44;;;;;;;4.85;4.50;;;1.20;99.90;;;;;;5042710;28;20196;-84
2024/01/14 04:28:11;;;;;;;4.05;2.28;;;1.20;99.90;;;;;;5045907;28;20199;-85
2024/01/14 04:30:38;;;;;;;10.63;5.20;;;1.20;99.90;;;;;;5051519;28;20190;-84
2024/01/14 04:33:05;;;;;;;2.80;2.35;;;1.20;99.90;;;;;;5037392;28;20260;-84
2024/01/14 04:35:32;;;;;;;4.65;3.42;;;1.20;99.90;;;;;;5041262;28;20268;-84
2024/01/14 04:37:59;;;;;;;20.48;9.02;;;1.20;99.90;;;;;;5037658;28;20253;-85
2024/01/14 04:40:26;;;;;;;6.93;3.80;;;1.20;99.90;;;;;;5049905;28;20286;-85
2024/01/14 04:42:54;;;;;;;13.52;7.60;;;1.20;99.90;;;;;;5049640;28;20206;-84
2024/01/14 04:45:20;;;;;;;1.67;1.58;;;1.20;99.90;;;;;;5049454;28;20215;-85
2024/01/14 04:47:47;;;;;;;0.40;0.40;;;1.20;99.90;;;;;;5049377;28;20200;-84
2024/01/14 04:50:15;;;;;;;8.02;3.88;;;1.20;99.90;;;;;;5048697;28;20192;-85
2024/01/14 04:52:42;;;;;;;18.60;6.38;;;1.20;99.90;;;;;;5049127;28;20227;-85
2024/01/14 04:55:08;;;;;;;8.23;7.40;;;1.20;99.90;;;;;;5049609;28;20254;-84
2024/01/14 04:57:35;;;;;;;2.75;2.10;;;1.20;99.90;;;;;;5049946;28;20262;-85
2024/01/14 05:00:05;;;;;;;4.78;3.30;;;1.20;99.90;;;;;;5048624;28;20278;-85
2024/01/14 05:02:31;;;;;;;4.68;2.83;;;1.20;99.90;;;;;;5021260;28;20192;-84
2024/01/14 05:04:58;;;;;;;7.85;3.45;;;1.20;99.90;;;;;;5028757;28;20185;-84
2024/01/14 05:07:25;;;;;;;13.68;7.43;;;1.20;99.90;;;;;;5048058;28;20283;-85
2024/01/14 05:09:52;;;;;;;17.95;10.02;;;1.20;99.90;;;;;;5048356;28;20207;-82
2024/01/14 05:12:18;;;;;;;9.90;8.07;;;1.20;99.90;;;;;;5048194;28;20195;-85
2024/01/14 05:14:45;;;;;;;6.20;5.13;;;1.20;99.90;;;;;;5043345;28;20200;-83
2024/01/14 05:17:13;;;;;;;29.08;6.78;;;1.20;99.90;;;;;;5028262;28;20204;-83
2024/01/14 05:19:41;;;;;;;9.52;5.45;;;1.20;99.90;;;;;;5026439;28;20741;-85
2024/01/14 05:22:08;;;;;;;3.10;2.90;;;1.20;99.90;;;;;;5026007;28;20196;-84
2024/01/14 05:24:35;;;;;;;9.35;2.40;;;1.20;99.90;;;;;;5028478;28;20228;-84
2024/01/14 05:27:02;;;;;;;18.98;18.08;;;1.20;99.90;;;;;;5029787;28;20346;-84
2024/01/14 05:29:29;;;;;;;1.95;1.63;;;1.20;99.90;;;;;;5029818;28;20188;-84
2024/01/14 05:31:55;;;;;;;2.33;2.15;;;1.20;99.90;;;;;;5029891;28;20199;-82
2024/01/14 05:34:24;;;;;;;2.15;1.08;;;1.20;99.90;;;;;;5029879;28;20214;-84
2024/01/14 05:36:50;;;;;;;12.05;7.82;;;1.20;99.90;;;;;;5029668;28;20216;-84
2024/01/14 05:39:17;;;;;;;0.82;0.82;;;1.20;99.90;;;;;;5029025;28;20216;-84
2024/01/14 05:41:44;;;;;;;0.40;0.40;;;1.20;99.90;;;;;;5030187;28;20203;-84
2024/01/14 05:44:11;;;;;;;4.28;3.80;;;1.20;99.90;;;;;;5029659;28;20754;-84
2024/01/14 05:46:38;;;;;;;0.40;0.40;;;1.20;99.90;;;;;;5028739;28;20220;-84
2024/01/14 05:49:05;;;;;;;5.45;2.90;;;1.20;99.90;;;;;;5028815;28;20201;-84
2024/01/14 05:51:33;;;;;;;0.40;0.30;;;1.30;99.90;;;;;;5030087;28;20192;-84
2024/01/14 05:54:00;;;;;;;1.60;1.50;;;1.30;99.90;;;;;;5029659;28;20267;-83
2024/01/14 05:56:27;;;;;;;10.93;6.53;;;1.30;99.90;;;;;;5029218;28;20216;-84
2024/01/14 05:58:54;;;;;;;5.75;2.92;;;1.30;99.90;;;;;;5030079;28;20204;-85
2024/01/14 06:01:21;;;;;;;0.98;0.98;;;1.20;99.90;;;;;;5028970;28;20243;-84
2024/01/14 06:03:47;;;;;;;1.88;1.77;;;1.20;99.90;;;;;;5029119;28;20657;-83
2024/01/14 06:06:14;;;;;;;8.48;3.42;;;1.20;99.90;;;;;;5029358;28;20224;-84
2024/01/14 06:08:44;;;;;;;5.32;2.85;;;1.20;99.90;;;;;;5029187;28;20203;-84
2024/01/14 06:11:10;;;;;;;0.70;0.70;;;1.20;99.90;;;;;;5029086;28;20203;-82
2024/01/14 06:13:37;;;;;;;9.07;8.05;;;1.10;99.90;;;;;;5040958;28;20196;-84
2024/01/14 06:16:05;;;;;;;15.55;8.20;;;1.10;99.90;;;;;;5048791;28;20574;-84
2024/01/14 06:18:32;;;;;;;6.25;4.18;;;1.10;99.90;;;;;;5048669;28;20264;-84
2024/01/14 06:21:00;;;;;;;4.40;3.38;;;1.00;99.90;;;;;;5048794;28;20675;-84
2024/01/14 06:23:27;;;;;;;1.80;1.55;;;1.00;99.90;;;;;;5048481;28;20227;-85
2024/01/14 06:25:55;;;;;;;5.10;3.35;;;1.00;99.90;;;;;;5048093;28;20227;-84
2024/01/14 06:28:22;;;;;;;9.98;6.47;;;1.00;99.90;;;;;;5048365;28;20210;-84
2024/01/14 06:30:49;;;;;;;2.60;1.35;;;1.00;99.90;;;;;;5048137;28;20188;-83
2024/01/14 06:33:15;;;;;;;2.78;0.98;;;1.00;99.90;;;;;;5048446;28;20206;-84
2024/01/14 06:35:42;;;;;;;3.08;2.88;;;1.10;99.90;;;;;;5046892;28;20212;-84
2024/01/14 06:38:09;;;;;;;2.25;2.15;;;1.10;99.90;;;;;;5049319;28;20196;-84
2024/01/14 06:40:36;;;;;;;1.92;1.88;;;1.10;99.90;;;;;;5047899;28;20216;-83
2024/01/14 06:43:05;;;;;;;11.23;4.45;;;1.10;99.90;;;;;;5048212;28;20196;-84
2024/01/14 06:45:32;;;;;;;5.55;4.03;;;1.10;99.90;;;;;;5048266;28;20322;-84
2024/01/14 06:47:59;;;;;;;8.50;3.67;;;1.10;99.90;;;;;;5047446;28;20192;-84
2024/01/14 06:50:26;;;;;;;6.60;6.00;;;1.10;99.90;;;;;;5047985;28;20219;-84
2024/01/14 06:52:52;;;;;;;0.93;0.93;;;1.10;99.90;;;;;;5047458;28;20198;-84
2024/01/14 06:55:19;;;;;;;19.20;9.38;;;1.10;99.90;;;;;;5047221;28;20233;-83
2024/01/14 06:57:46;;;;;;;6.55;3.78;;;1.10;99.90;;;;;;5047461;28;20254;-83
2024/01/14 07:00:15;;;;;;;5.43;4.93;;;1.10;99.90;;;;;;5046710;28;20220;-83
2024/01/14 07:02:42;;;;;;;9.98;6.32;;;1.10;99.90;;;;;;5019945;28;20766;-81
2024/01/14 07:05:10;;;;;;;8.13;5.68;;;1.10;99.90;;;;;;5029870;28;20262;-80
2024/01/14 07:07:37;;;;;;;6.63;6.18;;;1.10;99.90;;;;;;5027143;28;20224;-83
2024/01/14 07:10:04;;;;;;;1.48;1.42;;;1.10;99.90;;;;;;5028142;28;20256;-82
2024/01/14 07:12:31;;;;;;;1.75;1.75;;;1.10;99.90;;;;;;5026931;28;20216;-81
2024/01/14 07:14:59;;;;;;;8.27;4.07;;;1.10;99.90;;;;;;5026578;28;20232;-83
2024/01/14 07:17:27;;;;;;;9.02;4.30;;;1.10;99.90;;;;;;5025581;28;20206;-83
2024/01/14 07:19:54;;;;;;;10.13;3.97;;;1.10;99.90;;;;;;5025573;28;20238;-81
2024/01/14 07:22:20;;;;;;;3.70;3.40;;;1.10;99.90;;;;;;5027422;28;20196;-84
2024/01/14 07:24:47;;;;;;;9.68;2.38;;;1.10;99.90;;;;;;5031389;28;20198;-83
2024/01/14 07:27:14;;;;;;;10.73;4.53;;;1.10;99.90;;;;;;5038434;28;20183;-83
2024/01/14 07:29:40;;;;;;;0.65;0.65;;;1.20;99.90;;;;;;5026408;28;20197;-83
2024/01/14 07:32:07;;;;;;;1.50;1.40;;;1.10;99.90;;;;;;5018400;28;20196;-84
2024/01/14 07:34:38;;;;;;;21.65;5.25;;;1.20;99.90;;;;;;5018370;28;20293;-83
2024/01/14 07:37:05;;;;;;;4.45;3.30;;;1.10;99.90;;;;;;5018265;28;20295;-83
2024/01/14 07:39:32;;;;;;;12.50;8.45;;;1.10;99.90;;;;;;5017089;28;20200;-83
2024/01/14 07:41:59;;;;;;;2.50;1.40;;;1.10;99.90;;;;;;5016597;28;20672;-83
2024/01/14 07:44:25;;;;;;;8.52;4.57;;;1.10;99.90;;;;;;5016830;28;20196;-82
2024/01/14 07:46:54;;;;;;;0.65;0.65;;;1.10;99.90;;;;;;5016569;28;20212;-83
2024/01/14 07:49:20;;;;;;;0.40;0.40;;;1.10;99.90;;;;;;5032846;28;20407;-81
2024/01/14 07:51:49;;;;;;;1.33;1.17;;;1.10;99.90;;;;;;5024187;28;20210;-83
2024/01/14 07:54:15;;;;;;;11.68;6.90;;;1.20;99.90;;;;;;5015921;28;20196;-83
2024/01/14 07:56:42;;;;;;;4.03;3.83;;;1.10;99.90;;;;;;5016341;28;20215;-83
2024/01/14 07:59:10;;;;;;;12.82;4.30;;;1.20;99.90;;;;;;5016447;28;20204;-82
2024/01/14 08:01:37;;;;;;;3.90;3.13;;;1.10;99.90;;;;;;5015860;28;20217;-83
2024/01/14 08:04:04;;;;;;;6.13;4.90;;;1.10;99.90;;;;;;5030732;28;20196;-83
2024/01/14 08:06:31;;;;;;;11.18;4.45;;;1.10;99.90;;;;;;5035186;28;20219;-83
2024/01/14 08:08:59;;;;;;;24.83;9.20;;;1.10;99.90;;;;;;5031033;28;20192;-84
2024/01/14 08:11:25;;;;;;;1.50;1.08;;;1.10;99.90;;;;;;5032560;28;20195;-82
2024/01/14 08:13:52;;;;;;;17.58;8.90;;;1.10;99.90;;;;;;5023034;28;20207;-83
2024/01/14 08:16:19;;;;;;;20.55;7.57;;;1.00;99.90;;;;;;5023033;28;20219;-82
2024/01/14 08:18:46;;;;;;;10.52;4.10;;;1.10;99.90;;;;;;5023532;28;20203;-83
2024/01/14 08:21:12;;;;;;;23.00;6.30;;;1.00;99.90;;;;;;5023259;28;20577;-82
2024/01/14 08:23:39;;;;;;;3.20;3.00;;;1.00;99.90;;;;;;5015863;28;20563;-83
2024/01/14 08:26:07;;;;;;;5.85;5.13;;;1.00;99.90;;;;;;5015878;28;20212;-83
2024/01/14 08:28:36;;;;;;;5.93;1.55;;;1.10;99.90;;;;;;5014936;28;20200;-82
2024/01/14 08:31:04;;;;;;;12.63;4.93;;;1.10;99.90;;;;;;5015244;28;20188;-83
2024/01/14 08:33:30;;;;;;;12.25;6.82;;;1.10;99.90;;;;;;5015803;28;20227;-82
2024/01/14 08:35:57;;;;;;;7.32;3.50;;;1.10;99.90;;;;;;5015884;28;20593;-82
2024/01/14 08:38:24;;;;;;;7.55;5.22;;;1.10;99.90;;;;;;5024191;28;20575;-81
2024/01/14 08:40:52;;;;;;;10.32;6.53;;;1.10;99.90;;;;;;5015099;28;20262;-83
2024/01/14 08:43:20;;;;;;;4.30;2.25;;;1.10;99.90;;;;;;5022577;28;20192;-82
2024/01/14 08:45:47;;;;;;;12.35;4.88;;;1.10;99.90;;;;;;5014147;28;20208;-79
2024/01/14 08:48:15;;;;;;;23.10;8.90;;;1.10;99.90;;;;;;5029861;28;20199;-83
2024/01/14 08:50:42;;;;;;;13.77;11.00;;;1.10;99.90;;;;;;5026324;28;20568;-84
2024/01/14 08:53:09;;;;;;;0.50;0.40;;;1.10;99.90;;;;;;5034212;28;20253;-82
2024/01/14 08:55:35;;;;;;;3.35;2.80;;;1.10;99.90;;;;;;5025732;28;20211;-83
2024/01/14 08:58:02;;;;;;;15.98;6.80;;;1.10;99.90;;;;;;5015282;28;20200;-84
2024/01/14 09:00:30;;;;;;;2.63;1.40;;;1.10;99.90;;;;;;5016526;28;20212;-84
2024/01/14 09:02:57;;;;;;;1.70;1.60;;;1.10;99.90;;;;;;5018436;28;20195;-82
2024/01/14 09:05:24;;;;;;;4.10;2.67;;;1.10;99.90;;;;;;5018139;28;20715;-83
2024/01/14 09:07:51;;;;;;;32.33;13.15;;;1.10;99.90;;;;;;5017948;28;20196;-80
2024/01/14 09:10:18;;;;;;;8.68;3.25;;;1.10;99.90;;;;;;5025222;28;20205;-82
2024/01/14 09:12:44;;;;;;;12.85;3.55;;;1.10;99.90;;;;;;5027817;28;20200;-82
2024/01/14 09:15:11;;;;;;;12.80;5.22;;;1.10;99.90;;;;;;5018257;28;20588;-83
2024/01/14 09:17:39;;;;;;;2.15;2.05;;;1.10;99.90;;;;;;5018554;28;20201;-83
2024/01/14 09:20:08;;;;;;;16.52;7.25;;;1.10;99.90;;;;;;5023748;28;20188;-81
2024/01/14 09:22:35;;;;;;;8.88;6.35;;;1.10;99.90;;;;;;5021874;28;20569;-81
2024/01/14 09:25:01;;;;;;;21.15;7.78;;;1.00;99.90;;;;;;5038004;28;20203;-82
2024/01/14 09:27:30;;;;;;;7.07;4.10;;;1.00;99.90;;;;;;5022871;28;20195;-82
2024/01/14 09:29:57;;;;;;;15.52;4.63;;;1.00;99.90;;;;;;5029631;28;20195;-83
2024/01/14 09:32:23;;;;;;;15.80;9.73;;;1.00;99.90;;;;;;5041576;28;20192;-81
2024/01/14 09:34:52;;;;;;;8.57;4.88;;;1.00;99.90;;;;;;5039158;28;20195;-81
2024/01/14 09:37:19;;;;;;;6.05;2.35;;;0.90;99.90;;;;;;5049109;28;20237;-82
2024/01/14 09:39:46;;;;;;;6.03;2.25;;;0.90;99.90;;;;;;5037051;28;20200;-84
2024/01/14 09:42:20;;;;;;;9.75;9.00;;;0.90;99.90;;;;;;5041065;28;20214;-83
2024/01/14 09:44:48;;;;;;;2.83;2.63;;;1.00;99.90;;;;;;5041072;28;20187;-81
2024/01/14 09:47:17;;;;;;;0.52;0.52;;;0.90;99.90;;;;;;5040689;28;20188;-83
2024/01/14 09:49:44;;;;;;;4.25;2.30;;;0.90;99.90;;;;;;5041332;28;20211;-84
2024/01/14 09:52:13;;;;;;;5.15;4.72;;;1.00;99.90;;;;;;5040646;28;20184;-84
2024/01/14 09:54:40;;;;;;;14.88;9.00;;;1.00;99.90;;;;;;5039710;28;20192;-83
2024/01/14 09:57:12;;;;;;;24.75;12.32;;;1.00;99.90;;;;;;5034379;28;20717;-83
2024/01/14 09:59:43;;;;;;;15.82;7.57;;;1.00;99.90;;;;;;5020265;28;20566;-84
2024/01/14 10:02:11;;;;;;;13.80;5.57;;;1.00;99.90;;;;;;5039484;28;20234;-82
2024/01/14 10:04:40;;;;;;;6.68;2.92;;;1.00;99.90;;;;;;5040143;28;20195;-84
2024/01/14 10:07:08;;;;;;;6.50;3.30;;;1.00;99.90;;;;;;5034644;28;20213;-84
2024/01/14 10:09:36;;;;;;;2.30;2.20;;;1.00;99.90;;;;;;5019723;28;20203;-84
2024/01/14 10:12:03;;;;;;;7.80;7.18;;;1.00;99.90;;;;;;5024080;28;20196;-84
2024/01/14 10:14:30;;;;;;;3.88;3.67;;;1.00;99.90;;;;;;5040062;28;20198;-84
2024/01/14 10:16:57;;;;;;;4.35;4.15;;;1.10;99.90;;;;;;5027953;28;20703;-84
2024/01/14 10:19:24;;;;;;;1.88;1.80;;;1.00;99.90;;;;;;5034218;28;20192;-82
2024/01/14 10:21:53;;;;;;;20.77;8.23;;;1.00;99.90;;;;;;5020341;28;20220;-82
2024/01/14 10:24:21;;;;;;;12.10;6.32;;;1.00;99.90;;;;;;5019598;28;20614;-83
2024/01/14 10:26:53;;;;;;;17.83;8.88;;;1.00;99.90;;;;;;5018516;28;20227;-82
2024/01/14 10:29:20;;;;;;;4.95;1.80;;;1.00;99.90;;;;;;5018928;28;20203;-83
2024/01/14 10:31:47;;;;;;;7.65;1.13;;;1.00;99.90;;;;;;5036482;28;20195;-84
2024/01/14 10:34:16;;;;;;;4.80;4.45;;;1.00;99.90;;;;;;5026767;28;20283;-82
2024/01/14 10:36:43;;;;;;;26.15;13.93;;;1.00;99.90;;;;;;5021833;28;20244;-83
2024/01/14 10:39:11;;;;;;;10.25;4.97;;;0.90;99.90;;;;;;5041716;28;20219;-84
2024/01/14 10:41:38;;;;;;;1.92;1.83;;;0.90;99.90;;;;;;5040001;28;20633;-83
2024/01/14 10:44:07;;;;;;;4.07;3.03;;;0.90;99.90;;;;;;5020203;28;20203;-83
2024/01/14 10:46:35;;;;;;;11.63;8.50;;;0.90;99.90;;;;;;5021558;28;20267;-83
2024/01/14 10:49:08;;;;;;;8.02;4.82;;;0.90;99.90;;;;;;5022014;28;20223;-84
2024/01/14 10:51:40;;;;;;;1.45;1.35;;;1.00;99.90;;;;;;5020124;28;20682;-83
2024/01/14 10:54:13;;;;;;;8.68;4.97;;;1.00;99.90;;;;;;5032414;28;20223;-83
2024/01/14 10:56:43;;;;;;;10.32;4.30;;;1.00;99.90;;;;;;5038024;28;20626;-82
2024/01/14 10:59:14;;;;;;;17.02;8.05;;;1.00;99.90;;;;;;5018581;28;20188;-82
2024/01/14 11:01:46;;;;;;;2.50;1.45;;;1.00;99.90;;;;;;5027419;28;20222;-83
2024/01/14 11:04:13;;;;;;;16.42;5.40;;;0.90;99.90;;;;;;5034706;28;20200;-83
2024/01/14 11:06:42;;;;;;;8.48;2.17;;;0.90;99.90;;;;;;5017065;28;20229;-83
2024/01/14 11:09:08;;;;;;;2.70;2.10;;;1.00;99.90;;;;;;5017954;28;20189;-81
2024/01/14 11:11:42;;;;;;;19.92;8.15;;;1.00;99.90;;;;;;5033160;28;20196;-83
2024/01/14 11:14:15;;;;;;;4.10;2.38;;;1.00;99.90;;;;;;5013369;28;20199;-82
2024/01/14 11:16:47;;;;;;;3.78;2.60;;;0.90;99.90;;;;;;5035785;28;20779;-83
2024/01/14 11:19:19;;;;;;;6.78;4.10;;;0.90;99.90;;;;;;5027989;28;20194;-81
2024/01/14 11:21:55;;;;;;;2.35;2.25;;;0.70;99.90;;;;;;5034799;28;20226;-82
2024/01/14 11:24:24;;;;;;;0.80;0.80;;;0.70;99.90;;;;;;5028785;28;20215;-81
2024/01/14 11:26:51;;;;;;;12.25;5.68;;;0.80;99.90;;;;;;5028205;28;20220;-79
2024/01/14 11:29:31;;;;;;;10.25;6.07;;;0.70;99.90;;;;;;5035750;28;20192;-82
2024/01/14 11:32:08;;;;;;;7.22;4.03;;;0.70;99.90;;;;;;5035991;28;20192;-81
2024/01/14 11:34:59;;;;;;;10.02;6.53;;;0.70;99.90;;;;;;5028281;28;20196;-83
2024/01/14 11:37:45;;;;;;;13.55;7.93;;;0.70;99.90;;;;;;5016494;28;20202;-83
2024/01/14 11:40:15;;;;;;;5.88;4.00;;;0.70;99.90;;;;;;5035757;28;20192;-83
2024/01/14 11:42:46;;;;;;;6.20;3.53;;;0.70;99.90;;;;;;5035483;28;20243;-82
2024/01/14 11:45:31;;;;;;;5.72;5.18;;;0.70;99.90;;;;;;5022935;28;20255;-82
2024/01/14 11:47:58;;;;;;;9.60;4.72;;;0.70;99.90;;;;;;5024064;28;20680;-83
2024/01/14 11:50:26;;;;;;;11.48;4.40;;;0.70;99.90;;;;;;5021705;28;20666;-83
2024/01/14 11:52:54;;;;;;;13.00;1.33;;;0.80;99.90;;;;;;5017287;28;20196;-82
2024/01/14 11:55:25;;;;;;;6.03;5.13;;;0.80;99.90;;;;;;5021024;28;20565;-83
2024/01/14 11:57:53;;;;;;;4.00;2.45;;;0.80;99.90;;;;;;5025459;28;20200;-81
2024/01/14 12:00:24;;;;;;;2.97;2.88;;;0.90;99.90;;;;;;5015111;28;20224;-83
2024/01/14 12:03:04;;;;;;;3.75;3.55;;;0.90;99.90;;;;;;5023774;28;20212;-83
2024/01/14 12:05:30;;;;;;;1.53;1.53;;;0.80;99.90;;;;;;4978309;28;1075576;-83
2024/01/14 12:07:59;;;;;;;17.00;8.20;;;0.90;99.90;;;;;;5023933;28;20660;-83
2024/01/14 12:10:26;;;;;;;14.25;6.72;;;0.90;99.90;;;;;;5029679;28;20188;-83
2024/01/14 12:12:53;;;;;;;2.60;2.47;;;0.90;99.90;;;;;;5034607;28;20195;-83
2024/01/14 12:15:21;;;;;;;5.25;3.95;;;0.90;99.90;;;;;;5024777;28;20219;-83
2024/01/14 12:17:55;;;;;;;10.13;5.20;;;0.90;99.90;;;;;;5016270;28;20207;-83
2024/01/14 12:20:22;;;;;;;8.80;4.35;;;1.00;99.90;;;;;;5030791;28;20201;-83
2024/01/14 12:22:56;;;;;;;3.30;3.00;;;1.00;99.90;;;;;;5031867;28;20643;-81
2024/01/14 12:25:23;;;;;;;10.60;9.60;;;1.00;99.90;;;;;;5035835;28;20266;-83
2024/01/14 12:27:50;;;;;;;4.03;3.72;;;1.00;99.90;;;;;;5035293;28;20671;-83
2024/01/14 12:30:30;;;;;;;2.85;2.65;;;1.00;99.90;;;;;;5035092;28;20198;-83
2024/01/14 12:32:57;;;;;;;6.18;3.50;;;1.00;99.90;;;;;;5023858;28;20309;-82
2024/01/14 12:35:34;;;;;;;4.60;3.45;;;1.00;99.90;;;;;;5020057;28;20595;-84
2024/01/14 12:38:02;;;;;;;3.70;2.15;;;1.00;99.90;;;;;;5034756;28;20202;-84
2024/01/14 12:40:30;;;;;;;6.22;4.25;;;1.00;99.90;;;;;;5020591;28;20196;-81
2024/01/14 12:42:56;;;;;;;4.55;4.13;;;1.00;99.90;;;;;;5030734;28;20219;-83
2024/01/14 12:45:23;;;;;;;11.50;6.53;;;1.00;99.90;;;;;;5015292;28;20723;-83
2024/01/14 12:47:59;;;;;;;15.82;5.90;;;1.00;99.90;;;;;;5031605;28;20569;-84
2024/01/14 12:50:27;;;;;;;4.50;4.20;;;1.00;99.90;;;;;;5035158;28;20191;-81
2024/01/14 12:53:00;;;;;;;6.78;4.00;;;1.00;99.90;;;;;;5025508;28;20197;-84
2024/01/14 12:55:30;;;;;;;0.98;0.98;;;1.00;99.90;;;;;;5020754;28;20212;-83